createdAt,value
2023-02-18T00:01:02.516Z,18.38
2023-02-18T00:03:30.445Z,19.25
2023-02-18T00:05:57.759Z,18.50
2023-02-18T00:08:24.780Z,17.70
2023-02-18T00:10:51.776Z,18.60
2023-02-18T00:13:18.801Z,16.92
2023-02-18T00:15:45.813Z,16.00
2023-02-18T00:18:12.795Z,16.85
2023-02-18T00:20:40.334Z,15.77
2023-02-18T00:23:07.296Z,15.00
2023-02-18T00:25:34.315Z,15.77
2023-02-18T00:28:01.262Z,16.70
2023-02-18T00:30:28.764Z,16.77
2023-02-18T00:32:55.988Z,14.70
2023-02-18T00:35:23.018Z,14.68
2023-02-18T00:37:52.927Z,13.80
2023-02-18T00:40:21.052Z,13.05
2023-02-18T00:42:48.218Z,13.68
2023-02-18T00:45:17.104Z,12.45
2023-02-18T00:47:44.035Z,12.38
2023-02-18T00:50:11.944Z,12.40
2023-02-18T00:52:38.974Z,11.45
2023-02-18T00:55:07.936Z,11.35
2023-02-18T00:57:34.982Z,11.38
2023-02-18T01:00:02.023Z,11.23
2023-02-18T01:02:29.111Z,10.40
2023-02-18T01:04:56.095Z,10.10
2023-02-18T01:07:23.291Z,9.70
2023-02-18T01:09:50.189Z,9.82
2023-02-18T01:12:17.231Z,10.25
2023-02-18T01:14:44.640Z,9.05
2023-02-18T01:17:12.003Z,8.35
2023-02-18T01:19:40.381Z,7.88
2023-02-18T01:22:07.643Z,7.10
2023-02-18T01:24:35.166Z,6.55
2023-02-18T01:27:02.225Z,6.05
2023-02-18T01:29:29.162Z,5.95
2023-02-18T01:31:56.216Z,5.05
2023-02-18T01:34:23.361Z,4.18
2023-02-18T01:36:50.785Z,3.80
2023-02-18T01:39:17.880Z,3.67
2023-02-18T01:41:45.280Z,2.50
2023-02-18T01:44:24.596Z,2.63
2023-02-18T01:46:51.929Z,2.13
2023-02-18T01:49:28.755Z,2.05
2023-02-18T01:52:04.129Z,2.05
2023-02-18T01:54:41.439Z,1.70
2023-02-18T01:57:20.785Z,1.67
2023-02-18T02:00:12.170Z,1.55
2023-02-18T02:02:48.716Z,1.30
2023-02-18T02:05:16.781Z,1.60
2023-02-18T02:07:45.920Z,1.23
2023-02-18T02:10:15.471Z,1.40
2023-02-18T02:12:54.185Z,1.17
2023-02-18T02:15:34.936Z,1.48
2023-02-18T02:18:20.566Z,1.48
2023-02-18T02:21:05.200Z,1.70
2023-02-18T02:23:53.622Z,1.83
2023-02-18T02:26:39.028Z,2.05
2023-02-18T02:29:43.051Z,1.60
2023-02-18T02:32:24.974Z,2.00
2023-02-18T02:35:00.314Z,2.20
2023-02-18T02:37:30.304Z,2.08
2023-02-18T02:40:21.450Z,2.25
2023-02-18T02:43:27.909Z,2.47
2023-02-18T02:45:58.643Z,2.67
2023-02-18T02:48:40.458Z,2.35
2023-02-18T02:51:11.004Z,2.67
2023-02-18T02:53:41.632Z,2.78
2023-02-18T02:56:24.857Z,2.92
2023-02-18T02:59:08.078Z,3.00
2023-02-18T03:02:02.088Z,3.13
2023-02-18T03:05:04.810Z,3.20
2023-02-18T03:10:40.888Z,3.05
2023-02-18T03:13:46.537Z,2.92
2023-02-18T03:16:35.187Z,2.47
2023-02-18T03:19:13.849Z,2.70
2023-02-18T03:22:03.737Z,2.63
2023-02-18T03:24:37.861Z,2.50
2023-02-18T03:27:14.191Z,2.33
2023-02-18T03:29:45.040Z,2.55
2023-02-18T03:32:16.426Z,2.17
2023-02-18T03:34:48.039Z,2.25
2023-02-18T03:37:16.825Z,2.65
2023-02-18T03:39:49.190Z,2.25
2023-02-18T03:42:18.794Z,2.33
2023-02-18T03:44:46.115Z,2.05
2023-02-18T03:47:13.377Z,2.70
2023-02-18T03:49:40.576Z,2.72
2023-02-18T03:52:07.647Z,2.95
2023-02-18T03:54:38.088Z,2.78
2023-02-18T03:57:05.312Z,3.35
2023-02-18T03:59:32.303Z,2.78
2023-02-18T04:01:59.264Z,3.20
2023-02-18T04:04:26.410Z,3.42
2023-02-18T04:06:53.339Z,2.95
2023-02-18T04:09:20.357Z,3.80
2023-02-18T04:11:47.261Z,3.40
2023-02-18T04:14:14.843Z,3.40
2023-02-18T04:16:42.427Z,3.67
2023-02-18T04:19:09.784Z,3.80
2023-02-18T04:21:36.755Z,3.60
2023-02-18T04:24:03.933Z,3.67
2023-02-18T04:26:30.921Z,3.83
2023-02-18T04:28:57.991Z,4.35
2023-02-18T04:31:25.087Z,3.75
2023-02-18T04:33:52.819Z,3.85
2023-02-18T04:36:19.747Z,3.70
2023-02-18T04:38:46.831Z,3.85
2023-02-18T04:41:13.881Z,3.58
2023-02-18T04:43:40.905Z,3.45
2023-02-18T04:46:08.287Z,3.00
2023-02-18T04:48:35.526Z,3.17
2023-02-18T04:51:02.887Z,3.13
2023-02-18T04:53:29.900Z,2.70
2023-02-18T04:55:58.188Z,2.03
2023-02-18T04:58:25.455Z,2.67
2023-02-18T05:00:54.656Z,2.47
2023-02-18T05:03:21.632Z,2.08
2023-02-18T05:05:48.532Z,2.35
2023-02-18T05:08:16.468Z,2.30
2023-02-18T05:10:43.403Z,2.20
2023-02-18T05:13:10.573Z,2.28
2023-02-18T05:15:37.571Z,2.15
2023-02-18T05:18:04.923Z,2.17
2023-02-18T05:20:35.859Z,1.88
2023-02-18T05:23:02.772Z,3.33
2023-02-18T05:25:29.783Z,2.10
2023-02-18T05:27:56.654Z,2.60
2023-02-18T05:30:23.657Z,2.30
2023-02-18T05:32:50.979Z,2.20
2023-02-18T05:35:17.871Z,2.10
2023-02-18T05:37:44.778Z,2.15
2023-02-18T05:40:12.594Z,2.10
2023-02-18T05:42:39.945Z,1.80
2023-02-18T05:45:07.489Z,1.95
2023-02-18T05:47:34.524Z,2.33
2023-02-18T05:50:01.728Z,2.50
2023-02-18T05:52:28.710Z,2.45
2023-02-18T05:54:55.782Z,2.60
2023-02-18T05:57:22.841Z,2.33
2023-02-18T05:59:49.902Z,1.83
2023-02-18T06:02:16.784Z,2.45
2023-02-18T06:04:43.674Z,1.98
2023-02-18T06:07:10.656Z,2.30
2023-02-18T06:09:37.653Z,2.67
2023-02-18T06:12:05.080Z,1.90
2023-02-18T06:14:32.588Z,1.88
2023-02-18T06:16:59.506Z,2.05
2023-02-18T06:19:26.625Z,2.28
2023-02-18T06:21:53.921Z,1.70
2023-02-18T06:24:21.037Z,1.38
2023-02-18T06:26:51.690Z,2.08
2023-02-18T06:29:18.608Z,1.92
2023-02-18T06:31:45.754Z,1.45
2023-02-18T06:34:13.411Z,1.58
2023-02-18T06:36:40.658Z,1.40
2023-02-18T06:39:08.097Z,1.70
2023-02-18T06:41:35.194Z,1.30
2023-02-18T06:44:02.170Z,1.40
2023-02-18T06:46:29.177Z,1.92
2023-02-18T06:48:56.207Z,1.48
2023-02-18T06:51:23.415Z,1.70
2023-02-18T06:53:50.367Z,1.77
2023-02-18T06:56:17.744Z,1.60
2023-02-18T06:58:44.832Z,1.90
2023-02-18T07:01:12.023Z,2.42
2023-02-18T07:03:39.080Z,2.00
2023-02-18T07:06:06.447Z,2.33
2023-02-18T07:08:36.376Z,1.80
2023-02-18T07:11:04.074Z,2.20
2023-02-18T07:13:31.113Z,2.63
2023-02-18T07:15:58.139Z,1.65
2023-02-18T07:18:25.363Z,1.95
2023-02-18T07:20:52.720Z,2.05
2023-02-18T07:23:19.708Z,2.25
2023-02-18T07:25:46.615Z,2.35
2023-02-18T07:28:13.786Z,2.17
2023-02-18T07:30:40.939Z,2.35
2023-02-18T07:33:07.988Z,1.80
2023-02-18T07:35:36.002Z,1.55
2023-02-18T07:38:03.306Z,2.33
2023-02-18T07:40:30.325Z,2.00
2023-02-18T07:42:58.228Z,2.10
2023-02-18T07:45:25.491Z,2.00
2023-02-18T07:47:52.561Z,1.95
2023-02-18T07:50:20.614Z,2.53
2023-02-18T07:52:48.203Z,2.20
2023-02-18T07:55:15.177Z,1.80
2023-02-18T07:57:57.424Z,1.92
2023-02-18T08:00:24.825Z,1.70
2023-02-18T08:02:51.924Z,2.10
2023-02-18T08:05:19.069Z,1.90
2023-02-18T08:07:46.041Z,1.80
2023-02-18T08:10:13.007Z,2.05
2023-02-18T08:12:39.931Z,1.60
2023-02-18T08:15:07.208Z,1.70
2023-02-18T08:17:34.178Z,2.53
2023-02-18T08:20:01.334Z,1.95
2023-02-18T08:22:28.315Z,2.00
2023-02-18T08:24:56.628Z,3.03
2023-02-18T08:27:24.456Z,1.88
2023-02-18T08:29:52.960Z,1.77
2023-02-18T08:32:20.133Z,1.85
2023-02-18T08:34:47.109Z,2.63
2023-02-18T08:37:14.072Z,2.33
2023-02-18T08:39:40.978Z,1.90
2023-02-18T08:42:10.982Z,1.88
2023-02-18T08:44:38.087Z,2.30
2023-02-18T08:47:05.168Z,2.00
2023-02-18T08:49:54.311Z,1.95
2023-02-18T08:52:21.405Z,1.60
2023-02-18T08:54:48.995Z,2.58
2023-02-18T08:57:16.033Z,2.33
2023-02-18T08:59:42.944Z,1.77
2023-02-18T09:02:13.691Z,1.85
2023-02-18T09:04:40.879Z,2.50
2023-02-18T09:07:07.816Z,2.00
2023-02-18T09:09:34.833Z,1.75
2023-02-18T09:12:02.662Z,4.13
2023-02-18T09:14:29.839Z,2.22
2023-02-18T09:16:58.551Z,2.25
2023-02-18T09:19:26.493Z,3.03
2023-02-18T09:21:53.962Z,2.13
2023-02-18T09:24:21.181Z,2.08
2023-02-18T09:26:48.164Z,2.38
2023-02-18T09:29:15.142Z,1.83
2023-02-18T09:31:42.305Z,1.58
2023-02-18T09:34:09.423Z,1.85
2023-02-18T09:36:36.362Z,1.42
2023-02-18T09:39:03.622Z,1.38
2023-02-18T09:41:37.865Z,1.35
2023-02-18T09:44:21.589Z,0.82
2023-02-18T09:47:03.658Z,1.52
2023-02-18T09:49:38.256Z,1.40
2023-02-18T09:52:13.120Z,1.70
2023-02-18T09:54:40.365Z,1.60
2023-02-18T09:57:22.183Z,3.13
2023-02-18T09:59:56.593Z,3.58
2023-02-18T10:02:24.499Z,3.35
2023-02-18T10:04:54.343Z,3.17
2023-02-18T10:07:30.487Z,3.65
2023-02-18T10:10:08.640Z,4.30
2023-02-18T10:12:39.315Z,4.75
2023-02-18T10:15:17.082Z,4.55
2023-02-18T10:17:46.025Z,4.25
2023-02-18T10:20:20.873Z,4.38
2023-02-18T10:22:48.069Z,3.80
2023-02-18T10:25:21.092Z,3.90
2023-02-18T10:27:50.930Z,3.50
2023-02-18T10:30:32.927Z,3.38
2023-02-18T10:33:35.126Z,3.40
2023-02-18T10:36:24.472Z,3.05
2023-02-18T10:39:06.584Z,3.65
2023-02-18T10:41:53.212Z,4.57
2023-02-18T10:44:47.798Z,4.38
2023-02-18T10:47:33.506Z,4.38
2023-02-18T10:50:08.727Z,3.30
2023-02-18T10:52:41.073Z,3.97
2023-02-18T10:55:12.215Z,3.90
2023-02-18T10:57:54.375Z,5.28
2023-02-18T11:00:26.826Z,4.68
2023-02-18T11:03:14.475Z,4.50
2023-02-18T11:05:43.281Z,5.00
2023-02-18T11:08:16.093Z,5.60
2023-02-18T11:10:45.837Z,5.50
2023-02-18T11:13:18.441Z,5.18
2023-02-18T11:15:56.042Z,4.47
2023-02-18T11:18:25.987Z,4.50
2023-02-18T11:21:03.366Z,4.30
2023-02-18T11:23:30.506Z,4.95
2023-02-18T11:26:07.448Z,4.60
2023-02-18T11:28:42.767Z,3.75
2023-02-18T11:31:24.833Z,4.00
2023-02-18T11:34:03.256Z,3.10
2023-02-18T11:36:38.762Z,3.08
2023-02-18T11:39:17.892Z,3.20
2023-02-18T11:41:49.247Z,3.15
2023-02-18T11:44:25.408Z,2.33
2023-02-18T11:47:16.200Z,2.13
2023-02-18T11:50:00.757Z,2.10
2023-02-18T11:52:34.775Z,1.92
2023-02-18T11:55:15.178Z,2.10
2023-02-18T11:57:55.440Z,1.98
2023-02-18T12:00:25.632Z,1.67
2023-02-18T12:02:56.630Z,1.90
2023-02-18T12:05:26.590Z,1.60
2023-02-18T12:08:01.403Z,2.13
2023-02-18T12:10:46.836Z,1.75
2023-02-18T12:13:27.263Z,2.45
2023-02-18T12:16:22.773Z,1.50
2023-02-18T12:19:07.964Z,1.70
2023-02-18T12:21:51.519Z,1.73
2023-02-18T12:24:27.888Z,1.80
2023-02-18T12:27:05.812Z,1.88
2023-02-18T12:29:44.065Z,2.35
2023-02-18T12:32:18.564Z,2.10
2023-02-18T12:35:01.832Z,1.92
2023-02-18T12:38:02.142Z,2.35
2023-02-18T12:41:00.207Z,1.95
2023-02-18T12:43:48.443Z,2.60
2023-02-18T12:46:32.312Z,2.35
2023-02-18T12:49:24.063Z,2.45
2023-02-18T12:52:03.210Z,2.97
2023-02-18T12:55:00.035Z,2.58
2023-02-18T12:57:51.937Z,2.72
2023-02-18T13:00:37.266Z,2.70
2023-02-18T13:03:32.360Z,3.10
2023-02-18T13:06:09.535Z,2.88
2023-02-18T13:08:37.929Z,2.92
2023-02-18T13:11:24.656Z,2.63
2023-02-18T13:14:10.346Z,2.85
2023-02-18T13:16:39.847Z,2.42
2023-02-18T13:19:27.213Z,3.00
2023-02-18T13:21:59.496Z,2.55
2023-02-18T13:27:09.393Z,3.25
2023-02-18T13:29:45.664Z,2.58
2023-02-18T13:32:38.592Z,2.67
2023-02-18T13:35:25.581Z,2.92
2023-02-18T13:38:01.545Z,3.40
2023-02-18T13:40:31.489Z,2.40
2023-02-18T13:43:18.137Z,3.70
2023-02-18T13:46:05.373Z,3.13
2023-02-18T13:48:39.599Z,2.92
2023-02-18T13:51:07.681Z,3.08
2023-02-18T13:53:43.046Z,3.45
2023-02-18T13:56:11.331Z,3.55
2023-02-18T13:58:48.702Z,4.32
2023-02-18T14:01:32.168Z,3.50
2023-02-18T14:04:00.614Z,3.70
2023-02-18T14:06:34.145Z,3.28
2023-02-18T14:09:16.458Z,3.58
2023-02-18T14:11:49.522Z,3.33
2023-02-18T14:14:16.546Z,3.50
2023-02-18T14:17:22.591Z,3.25
2023-02-18T14:19:56.751Z,3.40
2023-02-18T14:22:45.367Z,4.40
2023-02-18T14:25:12.339Z,3.22
2023-02-18T14:27:40.489Z,3.30
2023-02-18T14:30:38.385Z,3.78
2023-02-18T14:33:05.676Z,4.10
2023-02-18T14:35:47.778Z,4.40
2023-02-18T14:38:49.738Z,3.67
2023-02-18T14:41:55.872Z,4.22
2023-02-18T14:45:00.931Z,4.07
2023-02-18T14:47:40.327Z,3.95
2023-02-18T14:50:13.915Z,4.43
2023-02-18T14:52:45.470Z,4.78
2023-02-18T14:55:20.851Z,4.10
2023-02-18T14:57:55.635Z,3.40
2023-02-18T15:00:35.012Z,4.60
2023-02-18T15:03:02.871Z,4.10
2023-02-18T15:05:32.209Z,3.88
2023-02-18T15:08:04.605Z,3.92
2023-02-18T15:10:42.961Z,4.28
2023-02-18T15:13:17.867Z,4.28
2023-02-18T15:15:48.195Z,4.50
2023-02-18T15:18:25.610Z,4.40
2023-02-18T15:20:52.615Z,4.97
2023-02-18T15:23:19.931Z,4.18
2023-02-18T15:25:51.405Z,4.30
2023-02-18T15:28:30.000Z,5.63
2023-02-18T15:31:02.516Z,4.90
2023-02-18T15:33:30.271Z,4.38
2023-02-18T15:36:05.861Z,5.10
2023-02-18T15:38:33.469Z,6.10
2023-02-18T15:41:01.499Z,4.97
2023-02-18T15:43:28.608Z,5.20
2023-02-18T15:45:57.790Z,4.78
2023-02-18T15:48:47.595Z,5.35
2023-02-18T15:51:22.311Z,4.60
2023-02-18T15:53:52.653Z,4.50
2023-02-18T15:56:41.543Z,4.65
2023-02-18T15:59:20.845Z,4.43
2023-02-18T16:01:53.079Z,4.85
2023-02-18T16:04:22.260Z,4.45
2023-02-18T16:06:54.239Z,4.43
2023-02-18T16:09:27.449Z,6.05
2023-02-18T16:12:03.327Z,6.30
2023-02-18T16:14:34.411Z,6.45
2023-02-18T16:17:29.572Z,6.35
2023-02-18T16:20:05.548Z,6.22
2023-02-18T16:22:36.263Z,6.22
2023-02-18T16:25:09.163Z,6.60
2023-02-18T16:27:46.700Z,6.03
2023-02-18T16:30:29.179Z,6.15
2023-02-18T16:35:27.887Z,5.85
2023-02-18T16:37:57.974Z,6.28
2023-02-18T16:40:31.133Z,6.15
2023-02-18T16:43:32.720Z,6.32
2023-02-18T16:46:10.795Z,6.78
2023-02-18T16:48:43.303Z,7.35
2023-02-18T16:51:21.145Z,8.07
2023-02-18T16:53:48.564Z,8.23
2023-02-18T16:56:22.294Z,7.32
2023-02-18T16:58:50.990Z,7.82
2023-02-18T17:01:24.534Z,7.80
2023-02-18T17:03:52.795Z,8.32
2023-02-18T17:06:20.418Z,8.25
2023-02-18T17:08:47.988Z,7.63
2023-02-18T17:11:25.965Z,7.38
2023-02-18T17:13:54.551Z,7.85
2023-02-18T17:16:22.828Z,7.28
2023-02-18T17:18:50.133Z,7.05
2023-02-18T17:21:22.481Z,6.70
2023-02-18T17:23:50.473Z,6.20
2023-02-18T17:26:21.729Z,7.15
2023-02-18T17:28:48.769Z,6.32
2023-02-18T17:31:19.025Z,6.20
2023-02-18T17:33:47.218Z,5.85
2023-02-18T17:36:14.251Z,5.68
2023-02-18T17:38:41.235Z,4.97
2023-02-18T17:41:08.428Z,5.13
2023-02-18T17:43:35.662Z,4.90
2023-02-18T17:46:02.695Z,4.60
2023-02-18T17:48:29.920Z,4.20
2023-02-18T17:50:59.337Z,5.28
2023-02-18T17:53:26.334Z,4.78
2023-02-18T17:55:53.716Z,5.40
2023-02-18T17:58:20.689Z,5.68
2023-02-18T18:00:59.497Z,5.45
2023-02-18T18:03:26.747Z,6.03
2023-02-18T18:05:54.571Z,6.32
2023-02-18T18:08:21.592Z,5.97
2023-02-18T18:10:52.642Z,5.57
2023-02-18T18:13:26.485Z,5.03
2023-02-18T18:15:56.815Z,6.05
2023-02-18T18:18:25.041Z,5.85
2023-02-18T18:20:56.032Z,5.68
2023-02-18T18:23:23.436Z,5.97
2023-02-18T18:25:53.192Z,6.60
2023-02-18T18:28:20.797Z,5.90
2023-02-18T18:30:51.494Z,5.45
2023-02-18T18:33:30.268Z,5.10
2023-02-18T18:36:00.505Z,4.70
2023-02-18T18:38:28.756Z,4.90
2023-02-18T18:40:56.391Z,4.70
2023-02-18T18:43:26.592Z,3.97
2023-02-18T18:45:54.020Z,4.03
2023-02-18T18:48:22.165Z,3.85
2023-02-18T18:50:50.514Z,4.05
2023-02-18T18:53:21.779Z,4.40
2023-02-18T18:55:50.226Z,3.90
2023-02-18T18:58:24.715Z,4.57
2023-02-18T19:00:57.752Z,4.63
2023-02-18T19:03:26.805Z,5.35
2023-02-18T19:05:54.847Z,4.90
2023-02-18T19:08:21.943Z,4.88
2023-02-18T19:10:54.751Z,4.50
2023-02-18T19:13:35.751Z,4.68
2023-02-18T19:16:19.386Z,5.18
2023-02-18T19:18:47.513Z,4.63
2023-02-18T19:21:15.111Z,4.40
2023-02-18T19:23:42.211Z,4.30
2023-02-18T19:26:09.287Z,4.65
2023-02-18T19:28:36.490Z,4.50
2023-02-18T19:31:09.955Z,4.38
2023-02-18T19:33:39.446Z,4.55
2023-02-18T19:36:08.941Z,4.50
2023-02-18T19:38:36.116Z,4.38
2023-02-18T19:41:08.903Z,4.28
2023-02-18T19:43:36.017Z,4.20
2023-02-18T19:46:09.513Z,4.88
2023-02-18T19:48:36.987Z,3.63
2023-02-18T19:51:06.656Z,3.83
2023-02-18T19:53:33.752Z,4.45
2023-02-18T19:56:02.800Z,4.70
2023-02-18T19:58:29.728Z,3.70
2023-02-18T20:00:57.192Z,3.75
2023-02-18T20:03:24.254Z,4.00
2023-02-18T20:05:51.189Z,4.13
2023-02-18T20:08:18.288Z,3.78
2023-02-18T20:10:45.239Z,3.67
2023-02-18T20:13:12.150Z,3.90
2023-02-18T20:15:40.737Z,3.35
2023-02-18T20:18:08.045Z,3.65
2023-02-18T20:20:35.037Z,4.30
2023-02-18T20:23:02.067Z,4.82
2023-02-18T20:25:29.742Z,4.13
2023-02-18T20:28:01.111Z,4.00
2023-02-18T20:30:28.857Z,4.88
2023-02-18T20:32:55.970Z,4.75
2023-02-18T20:35:26.841Z,5.07
2023-02-18T20:37:53.787Z,4.57
2023-02-18T20:40:20.810Z,5.10
2023-02-18T20:42:48.272Z,5.13
2023-02-18T20:45:15.616Z,5.10
2023-02-18T20:47:42.522Z,5.03
2023-02-18T20:50:09.764Z,4.72
2023-02-18T20:52:36.669Z,5.13
2023-02-18T20:55:03.862Z,4.60
2023-02-18T20:57:30.757Z,4.60
2023-02-18T20:59:58.477Z,4.65
2023-02-18T21:02:25.546Z,5.32
2023-02-18T21:04:52.553Z,4.55
2023-02-18T21:07:19.481Z,4.75
2023-02-18T21:09:46.500Z,4.60
2023-02-18T21:12:13.571Z,4.25
2023-02-18T21:14:40.635Z,3.65
2023-02-18T21:17:09.472Z,3.95
2023-02-18T21:19:36.652Z,3.03
2023-02-18T21:22:04.023Z,2.83
2023-02-18T21:24:32.865Z,2.60
2023-02-18T21:26:59.927Z,3.42
2023-02-18T21:29:27.241Z,2.45
2023-02-18T21:31:54.366Z,2.78
2023-02-18T21:34:22.854Z,2.90
2023-02-18T21:36:51.406Z,3.35
2023-02-18T21:39:18.567Z,4.00
2023-02-18T21:41:45.565Z,3.63
2023-02-18T21:44:12.702Z,3.75
2023-02-18T21:46:40.173Z,4.70
2023-02-18T21:49:09.588Z,4.47
2023-02-18T21:52:08.698Z,4.78
2023-02-18T21:54:41.391Z,5.10
2023-02-18T21:57:12.673Z,5.82
2023-02-18T21:59:40.569Z,5.93
2023-02-18T22:02:12.772Z,6.45
2023-02-18T22:04:40.130Z,5.80
2023-02-18T22:07:07.041Z,5.57
2023-02-18T22:09:34.036Z,5.25
2023-02-18T22:12:01.069Z,4.97
2023-02-18T22:14:28.332Z,5.32
2023-02-18T22:16:55.569Z,5.63
2023-02-18T22:19:23.088Z,4.93
2023-02-18T22:21:50.067Z,4.45
2023-02-18T22:24:18.544Z,4.25
2023-02-18T22:26:46.769Z,4.97
2023-02-18T22:29:15.534Z,4.90
2023-02-18T22:31:42.666Z,5.63
2023-02-18T22:34:10.814Z,6.15
2023-02-18T22:36:38.112Z,5.50
2023-02-18T22:39:06.537Z,5.63
2023-02-18T22:41:34.107Z,5.18
2023-02-18T22:44:04.083Z,6.32
2023-02-18T22:46:33.212Z,5.88
2023-02-18T22:49:01.842Z,5.50
2023-02-18T22:51:33.691Z,6.00
2023-02-18T22:54:02.555Z,6.13
2023-02-18T22:56:30.284Z,6.82
2023-02-18T22:58:58.749Z,6.20
2023-02-18T23:01:37.705Z,6.10
2023-02-18T23:04:08.318Z,5.72
2023-02-18T23:06:36.450Z,6.57
2023-02-18T23:09:05.000Z,6.32
2023-02-18T23:11:33.334Z,6.40
2023-02-18T23:14:18.739Z,6.15
2023-02-18T23:17:05.993Z,6.47
2023-02-18T23:19:34.728Z,7.38
2023-02-18T23:22:01.735Z,7.13
2023-02-18T23:24:29.091Z,6.93
2023-02-18T23:26:57.311Z,7.32
2023-02-18T23:29:24.273Z,7.63
2023-02-18T23:31:51.193Z,7.28
2023-02-18T23:34:19.056Z,8.65
2023-02-18T23:36:47.521Z,8.68
2023-02-18T23:39:18.740Z,8.95
2023-02-18T23:41:45.852Z,9.10
2023-02-18T23:44:16.071Z,9.13
2023-02-18T23:46:46.908Z,10.85
2023-02-18T23:49:22.242Z,10.15
2023-02-18T23:51:52.240Z,10.05
2023-02-18T23:54:20.229Z,9.95
2023-02-18T23:56:47.504Z,10.85
2023-02-18T23:59:14.939Z,10.18
